Current Conditions
Clear
Conditions



Pressure
29.91 (inHG) - 1012.87 (mb)
Visibility

10.0 (miles) - 16.1 (km)
   Temperature
79  °F
26°C
63  °F
Dewpoint
58  %
 Humidity
   Wind Speed
0  mph
0  kts
0  km/h
0  m/s
   Wind Direction
Calm
Due North
   Airport Data
KRUT
Location Rutland - Southern Vermont Regional Airport 7 mi (11km)
Metar :KRUT 221456Z AUTO 00000KT 10SM CLR 26/17 A2991 RMK AO2 SLP120 T02610172 58008 $
Wed 22nd May 14:56 pm
   Raw Metar Info
Raw METAR is the most common format in the world for the transmission of observational weather data. It is highly standardized through the International Civil Aviation Organization (ICAO), which allows it to be understood throughout most of the world.
   API Info
Data Provided by
https://www.checkwx.com/weather/
   © Info
CSS/SVG/PHP scripts were developed by weather34.com for use in the weather34 template © 2015-2024

Guide Info provided by Metar-Wikipedia